createdAt,value
2022-10-14T00:01:21.036Z,81.16
2022-10-14T00:02:53.036Z,81.19
2022-10-14T00:04:25.191Z,81.03
2022-10-14T00:05:57.258Z,80.99
2022-10-14T00:07:29.224Z,80.93
2022-10-14T00:09:06.405Z,80.73
2022-10-14T00:10:39.758Z,80.81
2022-10-14T00:12:11.803Z,80.85
2022-10-14T00:13:47.386Z,80.67
2022-10-14T00:15:19.468Z,80.83
2022-10-14T00:16:54.015Z,81.14
2022-10-14T00:18:26.407Z,81.13
2022-10-14T00:19:58.425Z,81.06
2022-10-14T00:21:30.903Z,81.14
2022-10-14T00:23:03.275Z,81.14
2022-10-14T00:24:35.211Z,81.07
2022-10-14T00:26:07.253Z,81.07
2022-10-14T00:27:39.297Z,81.01
2022-10-14T00:29:19.131Z,80.98
2022-10-14T00:30:58.488Z,81.06
2022-10-14T00:32:31.155Z,81.05
2022-10-14T00:34:03.634Z,81.12
2022-10-14T00:35:35.768Z,81.40
2022-10-14T00:37:07.814Z,81.28
2022-10-14T00:38:39.987Z,81.44
2022-10-14T00:40:12.604Z,81.48
2022-10-14T00:41:45.416Z,81.45
2022-10-14T00:43:17.552Z,81.89
2022-10-14T00:44:49.469Z,81.76
2022-10-14T00:46:21.809Z,81.70
2022-10-14T00:47:54.159Z,82.00
2022-10-14T00:49:41.413Z,81.87
2022-10-14T00:51:13.820Z,82.17
2022-10-14T00:52:45.831Z,81.89
2022-10-14T00:54:19.211Z,81.81
2022-10-14T00:55:51.261Z,81.75
2022-10-14T00:57:23.945Z,81.75
2022-10-14T00:58:56.985Z,81.86
2022-10-14T01:00:29.196Z,81.73
2022-10-14T01:02:01.269Z,81.62
2022-10-14T01:03:33.699Z,81.87
2022-10-14T01:05:07.567Z,81.63
2022-10-14T01:06:54.379Z,81.69
2022-10-14T01:08:54.390Z,81.76
2022-10-14T01:10:50.204Z,81.39
2022-10-14T01:12:47.552Z,81.70
2022-10-14T01:14:27.276Z,81.83
2022-10-14T01:16:18.798Z,81.68
2022-10-14T01:17:57.114Z,81.66
2022-10-14T01:20:06.748Z,81.44
2022-10-14T01:21:49.049Z,81.61
2022-10-14T01:23:51.515Z,81.77
2022-10-14T01:25:35.348Z,81.75
2022-10-14T01:29:04.523Z,82.03
2022-10-14T01:31:06.266Z,82.13
2022-10-14T01:32:46.440Z,82.10
2022-10-14T01:34:25.914Z,81.93
2022-10-14T01:36:06.831Z,82.17
2022-10-14T01:37:45.925Z,82.25
2022-10-14T01:39:25.806Z,82.45
2022-10-14T01:41:26.840Z,82.18
2022-10-14T01:43:00.673Z,82.25
2022-10-14T01:44:33.580Z,82.40
2022-10-14T01:46:06.934Z,82.33
2022-10-14T01:47:39.784Z,82.19
2022-10-14T01:49:14.597Z,82.16
2022-10-14T01:50:48.534Z,82.32
2022-10-14T01:52:27.772Z,82.29
2022-10-14T01:54:05.072Z,82.45
2022-10-14T01:55:39.791Z,82.50
2022-10-14T01:57:16.348Z,82.47
2022-10-14T01:58:49.056Z,82.56
2022-10-14T02:00:21.100Z,82.56
2022-10-14T02:03:25.919Z,82.36
2022-10-14T02:04:57.915Z,82.13
2022-10-14T02:06:38.241Z,82.35
2022-10-14T02:08:13.569Z,82.37
2022-10-14T02:09:46.228Z,82.32
2022-10-14T02:11:19.280Z,82.43
2022-10-14T02:12:57.174Z,82.18
2022-10-14T02:14:47.510Z,82.12
2022-10-14T02:16:39.232Z,81.86
2022-10-14T02:18:24.538Z,81.64
2022-10-14T02:20:07.491Z,81.57
2022-10-14T02:21:48.440Z,81.85
2022-10-14T02:23:24.554Z,81.61
2022-10-14T02:24:59.705Z,81.41
2022-10-14T02:26:32.215Z,81.69
2022-10-14T02:28:05.117Z,81.62
2022-10-14T02:29:37.953Z,81.54
2022-10-14T02:31:14.479Z,81.56
2022-10-14T02:32:47.391Z,81.68
2022-10-14T02:34:21.796Z,81.70
2022-10-14T02:35:54.138Z,81.81
2022-10-14T02:37:26.691Z,81.96
2022-10-14T02:39:00.192Z,81.96
2022-10-14T02:40:41.063Z,81.54
2022-10-14T02:42:13.082Z,81.51
2022-10-14T02:43:46.086Z,81.28
2022-10-14T02:45:18.783Z,81.46
2022-10-14T02:46:50.803Z,81.56
2022-10-14T02:48:22.821Z,81.60
2022-10-14T02:49:55.039Z,81.54
2022-10-14T02:51:27.025Z,81.50
2022-10-14T02:52:59.115Z,81.06
2022-10-14T02:54:31.062Z,81.14
2022-10-14T02:56:02.994Z,80.93
2022-10-14T02:57:34.915Z,80.97
2022-10-14T02:59:07.086Z,81.16
2022-10-14T03:00:39.123Z,81.44
2022-10-14T03:02:11.249Z,81.44
2022-10-14T03:03:43.351Z,81.40
2022-10-14T03:05:15.763Z,81.41
2022-10-14T03:06:47.824Z,81.59
2022-10-14T03:08:19.875Z,81.62
2022-10-14T03:09:51.860Z,81.48
2022-10-14T03:11:23.900Z,80.99
2022-10-14T03:12:55.945Z,81.09
2022-10-14T03:14:27.914Z,81.02
2022-10-14T03:15:59.962Z,81.01
2022-10-14T03:17:32.018Z,81.02
2022-10-14T03:19:04.018Z,81.01
2022-10-14T03:20:36.093Z,80.96
2022-10-14T03:22:08.283Z,80.94
2022-10-14T03:23:40.229Z,80.66
2022-10-14T03:25:12.351Z,80.77
2022-10-14T03:26:44.357Z,80.87
2022-10-14T03:28:16.415Z,80.59
2022-10-14T03:29:48.503Z,80.82
2022-10-14T03:31:20.525Z,81.04
2022-10-14T03:32:52.739Z,80.93
2022-10-14T03:34:24.755Z,81.00
2022-10-14T03:35:56.764Z,81.24
2022-10-14T03:37:28.875Z,81.40
2022-10-14T03:39:00.936Z,81.16
2022-10-14T03:40:32.920Z,80.83
2022-10-14T03:42:05.051Z,81.22
2022-10-14T03:43:37.014Z,81.24
2022-10-14T03:45:09.407Z,81.18
2022-10-14T03:46:41.505Z,81.10
2022-10-14T03:48:13.656Z,81.13
2022-10-14T03:49:45.737Z,81.28
2022-10-14T03:51:17.830Z,81.13
2022-10-14T03:52:53.370Z,81.19
2022-10-14T03:54:27.501Z,81.28
2022-10-14T03:55:59.710Z,81.26
2022-10-14T03:57:31.719Z,80.93
2022-10-14T03:59:04.100Z,81.28
2022-10-14T04:00:36.343Z,81.07
2022-10-14T04:02:08.469Z,81.05
2022-10-14T04:03:41.734Z,81.08
2022-10-14T04:05:13.890Z,81.10
2022-10-14T04:06:45.871Z,80.99
2022-10-14T04:08:17.909Z,80.97
2022-10-14T04:09:50.063Z,80.83
2022-10-14T04:11:22.159Z,80.85
2022-10-14T04:12:54.853Z,80.65
2022-10-14T04:14:27.077Z,80.88
2022-10-14T04:16:07.439Z,80.96
2022-10-14T04:17:39.537Z,80.95
2022-10-14T04:19:11.587Z,80.62
2022-10-14T04:20:43.705Z,80.34
2022-10-14T04:22:15.782Z,80.23
2022-10-14T04:23:48.092Z,80.64
2022-10-14T04:25:20.272Z,81.04
2022-10-14T04:26:52.923Z,81.06
2022-10-14T04:28:25.273Z,80.97
2022-10-14T04:30:03.531Z,80.66
2022-10-14T04:31:35.813Z,80.70
2022-10-14T04:33:07.842Z,80.96
2022-10-14T04:34:39.980Z,80.86
2022-10-14T04:36:12.106Z,80.68
2022-10-14T04:37:44.119Z,80.53
2022-10-14T04:39:16.092Z,80.53
2022-10-14T04:40:48.171Z,80.57
2022-10-14T04:42:20.574Z,81.13
2022-10-14T04:43:52.892Z,81.19
2022-10-14T04:45:26.101Z,81.28
2022-10-14T04:46:58.195Z,81.09
2022-10-14T04:48:30.318Z,81.25
2022-10-14T04:50:02.374Z,81.44
2022-10-14T04:51:34.362Z,81.25
2022-10-14T04:53:13.517Z,81.29
2022-10-14T04:54:45.834Z,81.39
2022-10-14T04:56:18.056Z,81.30
2022-10-14T04:57:50.097Z,81.32
2022-10-14T05:01:08.189Z,81.31
2022-10-14T05:02:40.509Z,81.25
2022-10-14T05:04:12.549Z,81.58
2022-10-14T05:05:44.651Z,81.74
2022-10-14T05:07:16.932Z,81.76
2022-10-14T05:08:49.121Z,81.49
2022-10-14T05:10:21.428Z,81.14
2022-10-14T05:11:53.616Z,81.06
2022-10-14T05:13:25.824Z,80.94
2022-10-14T05:14:58.691Z,81.28
2022-10-14T05:16:30.746Z,81.20
2022-10-14T05:18:02.741Z,81.52
2022-10-14T05:19:34.724Z,81.81
2022-10-14T05:21:07.215Z,81.81
2022-10-14T05:22:39.903Z,81.93
2022-10-14T05:24:11.907Z,82.10
2022-10-14T05:25:43.921Z,82.04
2022-10-14T05:27:15.997Z,82.13
2022-10-14T05:28:48.046Z,82.51
2022-10-14T05:30:20.125Z,82.89
2022-10-14T05:31:52.107Z,82.90
2022-10-14T05:33:24.369Z,82.77
2022-10-14T05:34:56.440Z,82.74
2022-10-14T05:36:28.466Z,82.93
2022-10-14T05:38:04.053Z,83.37
2022-10-14T05:39:36.432Z,83.33
2022-10-14T05:41:08.409Z,83.41
2022-10-14T05:42:40.511Z,83.56
2022-10-14T05:44:12.774Z,83.72
2022-10-14T05:45:44.868Z,84.32
2022-10-14T05:47:17.053Z,84.32
2022-10-14T05:48:49.056Z,84.44
2022-10-14T05:50:21.939Z,84.52
2022-10-14T05:51:54.088Z,84.55
2022-10-14T05:53:26.349Z,84.60
2022-10-14T05:54:58.445Z,84.64
2022-10-14T05:56:30.788Z,84.48
2022-10-14T05:58:02.906Z,84.64
2022-10-14T05:59:35.117Z,84.44
2022-10-14T06:01:09.424Z,84.48
2022-10-14T06:02:41.798Z,84.69
2022-10-14T06:04:19.387Z,84.60
2022-10-14T06:05:51.592Z,84.52
2022-10-14T06:07:23.739Z,84.25
2022-10-14T06:08:56.746Z,84.20
2022-10-14T06:10:28.790Z,84.44
2022-10-14T06:12:01.055Z,84.42
2022-10-14T06:13:33.317Z,84.23
2022-10-14T06:15:05.901Z,84.19
2022-10-14T06:16:38.069Z,84.38
2022-10-14T06:18:13.537Z,84.21
2022-10-14T06:19:46.040Z,84.30
2022-10-14T06:21:18.253Z,84.16
2022-10-14T06:22:50.185Z,84.02
2022-10-14T06:24:22.416Z,84.20
2022-10-14T06:25:54.748Z,84.09
2022-10-14T06:27:31.032Z,83.46
2022-10-14T06:29:03.318Z,83.59
2022-10-14T06:30:35.412Z,83.60
2022-10-14T06:32:09.271Z,83.38
2022-10-14T06:33:43.846Z,83.35
2022-10-14T06:35:16.410Z,83.26
2022-10-14T06:36:51.220Z,83.33
2022-10-14T06:38:23.895Z,83.05
2022-10-14T06:39:56.369Z,83.23
2022-10-14T06:41:28.810Z,83.14
2022-10-14T06:43:01.039Z,83.42
2022-10-14T06:44:33.456Z,83.18
2022-10-14T06:46:06.309Z,82.89
2022-10-14T06:47:38.651Z,82.76
2022-10-14T06:49:11.140Z,82.37
2022-10-14T06:50:43.370Z,82.22
2022-10-14T06:52:15.763Z,81.99
2022-10-14T06:53:48.115Z,81.64
2022-10-14T06:55:20.464Z,81.24
2022-10-14T06:56:52.976Z,80.78
2022-10-14T06:58:25.284Z,80.77
2022-10-14T06:59:57.802Z,80.59
2022-10-14T07:01:30.198Z,80.39
2022-10-14T07:03:02.455Z,80.71
2022-10-14T07:04:37.372Z,80.30
2022-10-14T07:06:10.127Z,80.01
2022-10-14T07:07:42.487Z,79.66
2022-10-14T07:09:14.874Z,78.87
2022-10-14T07:10:50.281Z,78.87
2022-10-14T07:12:23.076Z,78.67
2022-10-14T07:13:56.691Z,78.56
2022-10-14T07:15:32.520Z,78.49
2022-10-14T07:17:08.982Z,78.48
2022-10-14T07:18:41.376Z,78.34
2022-10-14T07:20:14.009Z,78.13
2022-10-14T07:21:47.327Z,77.76
2022-10-14T07:23:19.811Z,77.30
2022-10-14T07:24:52.095Z,76.55
2022-10-14T07:26:24.534Z,75.81
2022-10-14T07:27:57.237Z,74.93
2022-10-14T07:29:29.844Z,74.01
2022-10-14T07:31:08.113Z,73.58
2022-10-14T07:32:40.245Z,73.38
2022-10-14T07:34:12.589Z,72.45
2022-10-14T07:35:44.744Z,72.45
2022-10-14T07:37:16.881Z,72.55
2022-10-14T07:38:49.307Z,72.02
2022-10-14T07:40:21.851Z,71.64
2022-10-14T07:41:55.868Z,72.29
2022-10-14T07:43:28.980Z,71.76
2022-10-14T07:45:01.363Z,71.53
2022-10-14T07:46:35.369Z,71.64
2022-10-14T07:48:07.652Z,71.18
2022-10-14T07:49:39.828Z,71.25
2022-10-14T07:51:11.878Z,71.12
2022-10-14T07:52:44.387Z,68.76
2022-10-14T07:54:22.767Z,67.92
2022-10-14T09:03:47.591Z,61.83
2022-10-14T09:05:24.551Z,59.30
2022-10-14T09:06:57.966Z,59.22
2022-10-14T09:08:33.982Z,59.16
2022-10-14T09:10:14.304Z,59.46
2022-10-14T09:11:51.620Z,59.81
2022-10-14T09:13:52.200Z,58.96
2022-10-14T09:15:35.715Z,58.75
2022-10-14T09:17:20.856Z,57.13
2022-10-14T09:18:56.615Z,57.55
2022-10-14T09:20:30.207Z,57.69
2022-10-14T09:22:02.770Z,56.97
2022-10-14T09:23:35.705Z,55.22
2022-10-14T09:25:18.275Z,57.24
2022-10-14T09:26:59.267Z,57.56
2022-10-14T09:28:40.594Z,57.24
2022-10-14T09:30:17.292Z,57.46
2022-10-14T09:31:50.836Z,56.92
2022-10-14T09:33:24.457Z,56.77
2022-10-14T09:34:58.760Z,56.45
2022-10-14T09:36:31.927Z,56.13
2022-10-14T09:38:06.168Z,55.79
2022-10-14T09:39:41.055Z,53.91
2022-10-14T09:41:15.926Z,53.56
2022-10-14T09:43:10.519Z,54.91
2022-10-14T09:44:42.683Z,55.01
2022-10-14T09:46:17.790Z,55.26
2022-10-14T09:47:57.497Z,54.88
2022-10-14T09:49:40.219Z,54.71
2022-10-14T09:51:27.066Z,54.02
2022-10-14T09:53:10.924Z,54.11
2022-10-14T09:54:44.626Z,55.41
2022-10-14T09:56:18.999Z,55.29
2022-10-14T09:58:04.481Z,54.76
2022-10-14T09:59:57.518Z,54.87
2022-10-14T10:01:41.994Z,54.52
2022-10-14T10:03:30.342Z,54.36
2022-10-14T10:05:13.700Z,54.90
2022-10-14T10:06:55.761Z,54.83
2022-10-14T10:08:27.971Z,54.23
2022-10-14T10:10:19.313Z,53.35
2022-10-14T10:11:51.578Z,52.24
2022-10-14T10:13:46.603Z,53.01
2022-10-14T10:15:21.765Z,53.38
2022-10-14T10:17:18.927Z,52.74
2022-10-14T10:18:52.971Z,54.48
2022-10-14T10:20:39.586Z,53.95
2022-10-14T10:22:37.109Z,51.15
2022-10-14T10:24:19.583Z,52.55
2022-10-14T10:25:52.371Z,52.38
2022-10-14T10:27:24.837Z,52.28
2022-10-14T10:28:58.696Z,51.38
2022-10-14T10:30:33.879Z,52.97
2022-10-14T10:32:19.207Z,52.82
2022-10-14T10:34:16.406Z,51.08
2022-10-14T10:36:02.535Z,50.68
2022-10-14T10:38:00.886Z,52.94
2022-10-14T10:39:54.354Z,49.83
2022-10-14T10:41:54.910Z,50.20
2022-10-14T10:44:04.463Z,50.86
2022-10-14T10:45:38.468Z,49.66
2022-10-14T10:47:21.174Z,50.52
2022-10-14T10:49:02.148Z,48.61
2022-10-14T10:51:08.239Z,47.19
2022-10-14T10:53:16.245Z,46.79
2022-10-14T10:54:59.481Z,49.41
2022-10-14T10:56:40.900Z,47.61
2022-10-14T10:58:19.414Z,49.54
2022-10-14T10:59:59.893Z,47.57
2022-10-14T11:01:56.675Z,48.04
2022-10-14T11:03:29.139Z,48.68
2022-10-14T11:05:18.068Z,48.57
2022-10-14T11:07:28.347Z,48.42
2022-10-14T11:09:24.484Z,47.80
2022-10-14T11:11:57.682Z,47.50
2022-10-14T11:13:33.258Z,47.39
2022-10-14T11:15:23.690Z,47.34
2022-10-14T11:17:26.381Z,46.13
2022-10-14T11:19:10.909Z,45.50
2022-10-14T11:21:04.545Z,46.11
2022-10-14T11:23:05.139Z,45.45
2022-10-14T11:24:40.215Z,45.05
2022-10-14T11:28:33.509Z,42.97
2022-10-14T11:31:53.963Z,44.42
2022-10-14T11:33:47.222Z,45.57
2022-10-14T11:37:21.893Z,44.63
2022-10-14T11:39:12.571Z,45.40
2022-10-14T11:40:50.789Z,44.90
2022-10-14T11:42:33.134Z,44.44
2022-10-14T11:44:33.313Z,42.66
2022-10-14T11:46:21.255Z,43.15
2022-10-14T11:47:54.131Z,42.01
2022-10-14T11:49:30.778Z,42.52
2022-10-14T11:51:10.363Z,42.73
2022-10-14T11:53:02.273Z,42.49
2022-10-14T11:54:49.333Z,42.76
2022-10-14T11:56:32.311Z,40.90
2022-10-14T12:00:15.456Z,40.75
2022-10-14T12:01:49.252Z,39.16
2022-10-14T12:03:46.539Z,39.02
2022-10-14T12:05:45.992Z,39.61
2022-10-14T12:07:47.398Z,38.88
2022-10-14T12:09:39.701Z,38.77
2022-10-14T12:11:21.176Z,39.52
2022-10-14T12:12:55.280Z,36.85
2022-10-14T12:14:50.658Z,37.52
2022-10-14T12:16:24.446Z,38.16
2022-10-14T12:18:00.932Z,36.51
2022-10-14T12:19:33.854Z,38.29
2022-10-14T12:21:30.086Z,37.63
2022-10-14T12:23:04.315Z,36.75
2022-10-14T12:24:42.806Z,36.41
2022-10-14T12:26:20.441Z,35.28
2022-10-14T12:29:35.575Z,33.92
2022-10-14T12:31:34.248Z,35.46
2022-10-14T12:33:12.166Z,35.67
2022-10-14T12:34:45.057Z,35.56
2022-10-14T12:38:11.906Z,35.64
2022-10-14T12:39:44.182Z,35.54
2022-10-14T12:41:39.797Z,34.43
2022-10-14T12:43:21.092Z,32.38
2022-10-14T12:44:56.687Z,32.27
2022-10-14T12:46:28.981Z,32.11
2022-10-14T12:48:21.943Z,28.98
2022-10-14T12:49:56.893Z,30.89
2022-10-14T12:51:29.139Z,30.88
2022-10-14T12:53:08.088Z,30.92
2022-10-14T12:54:47.903Z,31.40
2022-10-14T12:56:38.797Z,29.85
2022-10-14T12:59:50.515Z,30.68
2022-10-14T13:01:25.766Z,29.99
2022-10-14T13:03:01.332Z,30.52
2022-10-14T13:04:34.207Z,31.34
2022-10-14T13:06:40.027Z,29.67
2022-10-14T13:08:21.450Z,29.52
2022-10-14T13:10:01.208Z,28.75
2022-10-14T13:11:33.624Z,30.65
2022-10-14T13:13:40.617Z,30.20
2022-10-14T13:15:48.524Z,30.50
2022-10-14T13:17:30.375Z,30.41
2022-10-14T13:19:03.560Z,30.51
2022-10-14T13:20:35.893Z,31.42
2022-10-14T13:22:33.211Z,30.91
2022-10-14T13:24:45.229Z,30.70
2022-10-14T13:26:29.403Z,31.66
2022-10-14T13:28:02.947Z,31.64
2022-10-14T13:30:06.169Z,30.87
2022-10-14T13:31:55.892Z,31.55
2022-10-14T13:33:48.114Z,30.96
2022-10-14T13:35:33.181Z,32.20
2022-10-14T13:37:53.969Z,30.03
2022-10-14T13:39:26.379Z,30.39
2022-10-14T13:40:59.059Z,29.94
2022-10-14T13:42:36.473Z,28.90
2022-10-14T13:44:11.771Z,29.07
2022-10-14T13:45:52.954Z,29.16
2022-10-14T13:47:25.947Z,28.91
2022-10-14T13:49:04.145Z,26.33
2022-10-14T13:50:38.301Z,27.91
2022-10-14T13:52:18.649Z,27.87
2022-10-14T13:54:24.038Z,28.15
2022-10-14T13:56:00.822Z,28.59
2022-10-14T13:58:00.044Z,26.49
2022-10-14T13:59:43.579Z,27.52
2022-10-14T14:01:19.141Z,28.25
2022-10-14T14:02:55.909Z,29.16
2022-10-14T14:04:35.196Z,28.15
2022-10-14T14:06:16.341Z,28.56
2022-10-14T14:08:34.918Z,29.12
2022-10-14T14:09:41.432Z,26.93
2022-10-14T14:11:25.604Z,25.09
2022-10-14T14:12:59.570Z,25.76
2022-10-14T14:14:37.415Z,26.37
2022-10-14T14:16:21.682Z,26.19
2022-10-14T14:17:54.807Z,27.72
2022-10-14T14:19:33.991Z,28.29
2022-10-14T14:21:07.296Z,27.11
2022-10-14T14:22:42.919Z,27.22
2022-10-14T14:24:25.709Z,26.51
2022-10-14T14:26:18.361Z,28.07
2022-10-14T14:27:56.078Z,27.04
2022-10-14T14:29:31.878Z,27.63
2022-10-14T14:31:04.338Z,28.47
2022-10-14T14:32:36.978Z,29.66
2022-10-14T14:34:17.518Z,30.38
2022-10-14T14:35:56.924Z,30.63
2022-10-14T14:39:27.508Z,30.84
2022-10-14T14:41:13.296Z,31.78
2022-10-14T14:42:47.295Z,31.05
2022-10-14T14:44:30.730Z,32.03
2022-10-14T14:46:03.261Z,32.37
2022-10-14T14:47:35.781Z,33.54
2022-10-14T14:49:08.466Z,33.53
2022-10-14T14:50:44.008Z,33.58
2022-10-14T14:52:17.049Z,32.81
2022-10-14T14:53:53.115Z,34.19
2022-10-14T14:55:41.607Z,34.29
2022-10-14T14:57:20.360Z,34.13
2022-10-14T14:58:58.805Z,34.08
2022-10-14T15:00:31.190Z,34.47
2022-10-14T15:02:10.558Z,35.38
2022-10-14T15:04:13.802Z,35.93
2022-10-14T15:05:51.264Z,36.14
2022-10-14T15:07:25.436Z,36.50
2022-10-14T15:09:07.879Z,36.84
2022-10-14T15:10:48.786Z,40.20
2022-10-14T15:12:42.466Z,42.52
2022-10-14T15:14:47.660Z,40.99
2022-10-14T15:16:43.795Z,42.01
2022-10-14T15:18:30.955Z,41.74
2022-10-14T15:20:12.143Z,43.58
2022-10-14T15:21:47.748Z,45.39
2022-10-14T15:23:40.106Z,47.57
2022-10-14T15:25:18.577Z,47.79
2022-10-14T15:26:51.223Z,47.97
2022-10-14T15:28:33.346Z,49.33
2022-10-14T15:30:32.124Z,50.04
2022-10-14T15:32:15.978Z,51.46
2022-10-14T15:33:49.343Z,51.47
2022-10-14T15:35:22.774Z,52.27
2022-10-14T15:36:55.145Z,52.17
2022-10-14T15:38:27.740Z,51.80
2022-10-14T15:40:12.159Z,53.15
2022-10-14T15:41:45.146Z,53.06
2022-10-14T15:43:20.903Z,52.82
2022-10-14T15:44:53.467Z,52.65
2022-10-14T15:46:44.315Z,53.01
2022-10-14T15:48:20.047Z,53.40
2022-10-14T15:49:52.548Z,53.51
2022-10-14T15:51:28.301Z,53.54
2022-10-14T15:53:00.543Z,54.60
2022-10-14T15:54:33.017Z,54.04
2022-10-14T15:56:05.584Z,54.31
2022-10-14T15:57:38.545Z,54.98
2022-10-14T15:59:11.092Z,54.92
2022-10-14T16:00:43.824Z,55.99
2022-10-14T16:02:34.323Z,55.54
2022-10-14T16:04:19.664Z,55.69
2022-10-14T16:05:52.690Z,55.86
2022-10-14T16:07:26.472Z,55.97
2022-10-14T16:08:59.350Z,56.31
2022-10-14T16:10:33.648Z,56.30
2022-10-14T16:12:11.627Z,56.55
2022-10-14T16:13:45.009Z,56.87
2022-10-14T16:15:20.222Z,56.47
2022-10-14T16:16:53.207Z,57.76
2022-10-14T16:18:26.345Z,57.32
2022-10-14T16:19:58.891Z,57.47
2022-10-14T16:21:31.570Z,57.42
2022-10-14T16:23:06.776Z,58.22
2022-10-14T16:24:39.334Z,58.11
2022-10-14T16:26:13.745Z,57.95
2022-10-14T16:27:46.144Z,58.26
2022-10-14T16:29:19.735Z,58.43
2022-10-14T16:30:52.140Z,58.65
2022-10-14T16:32:24.534Z,58.32
2022-10-14T16:33:56.936Z,58.36
2022-10-14T16:35:29.338Z,58.56
2022-10-14T16:37:07.843Z,58.61
2022-10-14T16:38:40.242Z,58.61
2022-10-14T16:40:19.152Z,59.45
2022-10-14T16:41:51.626Z,59.54
2022-10-14T16:43:24.226Z,59.34
2022-10-14T16:44:57.011Z,59.51
2022-10-14T16:47:07.662Z,59.48
2022-10-14T16:48:40.196Z,59.61
2022-10-14T16:50:12.915Z,60.04
2022-10-14T16:51:45.718Z,59.48
2022-10-14T16:53:36.435Z,59.89
2022-10-14T16:55:09.121Z,60.69
2022-10-14T16:56:56.079Z,60.14
2022-10-14T16:58:29.307Z,60.34
2022-10-14T17:00:01.592Z,60.79
2022-10-14T17:01:34.033Z,61.10
2022-10-14T17:03:06.468Z,60.91
2022-10-14T17:04:39.457Z,61.11
2022-10-14T17:06:11.683Z,61.17
2022-10-14T17:07:44.325Z,61.68
2022-10-14T17:09:17.824Z,61.32
2022-10-14T17:10:50.090Z,61.77
2022-10-14T17:12:24.304Z,61.38
2022-10-14T17:14:11.104Z,61.70
2022-10-14T17:15:43.349Z,61.92
2022-10-14T17:17:15.747Z,61.75
2022-10-14T17:20:40.494Z,61.56
2022-10-14T17:22:12.913Z,61.48
2022-10-14T17:23:45.233Z,62.08
2022-10-14T17:25:18.297Z,61.88
2022-10-14T17:26:50.819Z,61.69
2022-10-14T17:28:23.365Z,61.74
2022-10-14T17:29:55.840Z,61.46
2022-10-14T17:31:29.347Z,61.82
2022-10-14T17:33:01.781Z,61.89
2022-10-14T17:34:34.242Z,61.86
2022-10-14T17:36:08.068Z,61.79
2022-10-14T17:37:41.681Z,62.04
2022-10-14T17:39:18.932Z,61.95
2022-10-14T17:41:10.467Z,62.19
2022-10-14T17:42:43.235Z,61.91
2022-10-14T17:44:15.631Z,62.28
2022-10-14T17:45:47.982Z,62.75
2022-10-14T17:47:20.758Z,62.85
2022-10-14T17:48:58.408Z,63.27
2022-10-14T17:50:31.100Z,62.89
2022-10-14T17:52:04.845Z,63.55
2022-10-14T17:53:37.298Z,63.43
2022-10-14T17:55:09.938Z,63.94
2022-10-14T17:56:43.521Z,63.83
2022-10-14T17:58:15.956Z,63.98
2022-10-14T17:59:48.278Z,64.10
2022-10-14T18:01:31.660Z,64.22
2022-10-14T18:03:10.436Z,64.09
2022-10-14T18:04:42.750Z,64.02
2022-10-14T18:06:17.796Z,63.72
2022-10-14T18:07:50.394Z,63.75
2022-10-14T18:09:25.495Z,64.17
2022-10-14T18:10:57.821Z,63.94
2022-10-14T18:12:30.212Z,64.09
2022-10-14T18:14:04.862Z,64.02
2022-10-14T18:15:37.325Z,64.05
2022-10-14T18:17:13.729Z,64.36
2022-10-14T18:18:47.894Z,64.16
2022-10-14T18:20:20.604Z,64.34
2022-10-14T18:21:53.288Z,64.40
2022-10-14T18:23:25.502Z,64.32
2022-10-14T18:24:57.873Z,64.50
2022-10-14T18:26:30.226Z,64.63
2022-10-14T18:28:02.577Z,64.63
2022-10-14T18:29:34.958Z,65.02
2022-10-14T18:31:18.553Z,65.32
2022-10-14T18:32:50.830Z,65.38
2022-10-14T18:34:25.322Z,65.66
2022-10-14T18:35:58.347Z,65.86
2022-10-14T18:37:30.612Z,66.26
2022-10-14T18:39:06.978Z,66.33
2022-10-14T18:40:39.261Z,66.64
2022-10-14T18:42:11.731Z,66.85
2022-10-14T18:43:44.079Z,67.24
2022-10-14T18:45:16.554Z,67.41
2022-10-14T18:46:49.161Z,67.38
2022-10-14T18:48:22.535Z,67.37
2022-10-14T18:49:54.698Z,67.43
2022-10-14T18:51:29.731Z,67.57
2022-10-14T18:53:02.357Z,67.29
2022-10-14T18:54:35.149Z,67.64
2022-10-14T18:56:10.269Z,67.44
2022-10-14T18:57:42.573Z,67.41
2022-10-14T18:59:25.118Z,67.09
2022-10-14T19:00:57.608Z,67.04
2022-10-14T19:02:32.538Z,67.22
2022-10-14T19:04:06.726Z,67.25
2022-10-14T19:05:38.988Z,67.39
2022-10-14T19:07:11.382Z,67.54
2022-10-14T19:08:43.659Z,67.26
2022-10-14T19:10:16.006Z,67.21
2022-10-14T19:11:51.108Z,67.22
2022-10-14T19:13:23.549Z,67.46
2022-10-14T19:14:55.665Z,67.52
2022-10-14T19:16:29.816Z,67.65
2022-10-14T19:18:03.101Z,67.97
2022-10-14T19:19:35.273Z,67.90
2022-10-14T19:21:10.487Z,68.11
2022-10-14T19:22:45.349Z,68.02
2022-10-14T19:24:17.923Z,68.13
2022-10-14T19:25:50.355Z,67.97
2022-10-14T19:27:23.013Z,68.03
2022-10-14T19:28:57.577Z,67.91
2022-10-14T19:30:29.965Z,68.23
2022-10-14T19:32:02.301Z,68.18
2022-10-14T19:33:42.561Z,67.96
2022-10-14T19:35:15.032Z,68.13
2022-10-14T19:36:47.193Z,68.09
2022-10-14T19:38:19.307Z,68.22
2022-10-14T19:39:51.439Z,68.31
2022-10-14T19:41:24.666Z,68.15
2022-10-14T19:42:56.698Z,68.47
2022-10-14T19:44:28.809Z,68.54
2022-10-14T19:46:02.411Z,68.43
2022-10-14T19:47:34.481Z,68.95
2022-10-14T19:49:07.180Z,68.83
2022-10-14T19:50:42.120Z,68.77
2022-10-14T19:52:14.624Z,68.82
2022-10-14T19:53:46.853Z,68.91
2022-10-14T19:55:19.004Z,68.99
2022-10-14T19:56:53.974Z,69.12
2022-10-14T19:58:26.026Z,69.25
2022-10-14T19:59:58.426Z,69.46
2022-10-14T20:01:31.625Z,69.65
2022-10-14T20:03:04.125Z,69.56
2022-10-14T20:04:36.446Z,69.97
2022-10-14T20:06:09.747Z,69.88
2022-10-14T20:07:41.831Z,70.32
2022-10-14T20:09:16.954Z,69.99
2022-10-14T20:10:48.973Z,70.26
2022-10-14T20:12:21.262Z,70.15
2022-10-14T20:13:53.778Z,69.95
2022-10-14T20:15:25.975Z,70.28
2022-10-14T20:16:58.413Z,70.41
2022-10-14T20:18:33.967Z,70.49
2022-10-14T20:20:06.806Z,70.59
2022-10-14T20:21:39.256Z,70.58
2022-10-14T20:23:11.591Z,70.46
2022-10-14T20:24:44.064Z,70.59
2022-10-14T20:26:18.955Z,70.79
2022-10-14T20:27:51.202Z,70.76
2022-10-14T20:29:23.300Z,70.90
2022-10-14T20:30:56.485Z,70.93
2022-10-14T20:32:28.545Z,71.08
2022-10-14T20:34:00.609Z,71.17
2022-10-14T20:35:33.456Z,71.38
2022-10-14T20:37:05.546Z,71.68
2022-10-14T20:38:39.085Z,71.69
2022-10-14T20:40:12.032Z,71.50
2022-10-14T20:41:44.394Z,71.77
2022-10-14T20:43:16.904Z,71.81
2022-10-14T20:44:49.435Z,71.70
2022-10-14T20:46:22.969Z,71.87
2022-10-14T20:47:55.407Z,71.68
2022-10-14T20:49:27.369Z,71.71
2022-10-14T20:50:59.653Z,72.40
2022-10-14T20:52:31.680Z,73.03
2022-10-14T20:54:06.132Z,72.99
2022-10-14T20:55:40.711Z,73.34
2022-10-14T20:57:12.949Z,73.55
2022-10-14T20:58:46.153Z,73.74
2022-10-14T21:00:18.645Z,73.77
2022-10-14T21:01:50.863Z,73.85
2022-10-14T21:03:22.950Z,74.31
2022-10-14T21:04:54.961Z,74.20
2022-10-14T21:06:27.375Z,74.44
2022-10-14T21:07:59.411Z,74.66
2022-10-14T21:09:31.410Z,74.57
2022-10-14T21:11:14.911Z,74.78
2022-10-14T21:12:48.862Z,74.82
2022-10-14T21:14:21.270Z,74.68
2022-10-14T21:15:53.245Z,74.68
2022-10-14T21:17:25.240Z,74.58
2022-10-14T21:18:59.930Z,74.61
2022-10-14T21:20:35.160Z,74.98
2022-10-14T21:22:09.383Z,75.36
2022-10-14T21:23:41.371Z,75.55
2022-10-14T21:25:13.376Z,75.39
2022-10-14T21:26:50.839Z,75.49
2022-10-14T21:28:23.013Z,76.06
2022-10-14T21:31:28.316Z,75.85
2022-10-14T21:33:02.679Z,75.67
2022-10-14T21:34:34.730Z,76.26
2022-10-14T21:36:09.346Z,76.62
2022-10-14T21:37:41.723Z,76.56
2022-10-14T21:39:15.535Z,76.92
2022-10-14T21:40:47.662Z,77.06
2022-10-14T21:42:19.770Z,77.29
2022-10-14T21:43:51.947Z,77.54
2022-10-14T21:45:24.063Z,77.34
2022-10-14T21:46:56.082Z,77.53
2022-10-14T21:48:28.126Z,77.32
2022-10-14T21:50:00.167Z,77.46
2022-10-14T21:51:33.034Z,77.35
2022-10-14T21:53:05.155Z,77.33
2022-10-14T21:54:37.171Z,77.50
2022-10-14T21:56:10.495Z,77.45
2022-10-14T21:57:42.560Z,77.51
2022-10-14T21:59:14.647Z,77.62
2022-10-14T22:00:46.703Z,77.46
2022-10-14T22:02:19.941Z,77.44
2022-10-14T22:03:59.519Z,77.66
2022-10-14T22:05:35.123Z,77.93
2022-10-14T22:07:07.351Z,77.97
2022-10-14T22:08:41.623Z,77.97
2022-10-14T22:10:32.737Z,78.14
2022-10-14T22:12:05.201Z,78.09
2022-10-14T22:13:37.410Z,78.19
2022-10-14T22:15:09.949Z,78.27
2022-10-14T22:16:41.989Z,78.16